sensor_id;sensor_type;location;lat;lon;timestamp;P1;durP1;ratioP1;P2;durP2;ratioP2
24547;SDS011;12713;51.624;4.924;2022-07-23T00:01:37;6.65;;;4.30;;
24547;SDS011;12713;51.624;4.924;2022-07-23T00:04:03;6.50;;;5.47;;
24547;SDS011;12713;51.624;4.924;2022-07-23T00:06:29;7.38;;;4.75;;
24547;SDS011;12713;51.624;4.924;2022-07-23T00:08:55;7.05;;;4.85;;
24547;SDS011;12713;51.624;4.924;2022-07-23T00:11:21;7.15;;;5.45;;
24547;SDS011;12713;51.624;4.924;2022-07-23T00:13:47;9.80;;;5.10;;
24547;SDS011;12713;51.624;4.924;2022-07-23T00:16:13;6.28;;;5.20;;
24547;SDS011;12713;51.624;4.924;2022-07-23T00:18:40;7.20;;;5.82;;
24547;SDS011;12713;51.624;4.924;2022-07-23T00:21:06;7.30;;;5.80;;
24547;SDS011;12713;51.624;4.924;2022-07-23T00:23:32;11.23;;;5.50;;
24547;SDS011;12713;51.624;4.924;2022-07-23T00:25:58;7.72;;;5.03;;
24547;SDS011;12713;51.624;4.924;2022-07-23T00:28:24;7.75;;;5.72;;
24547;SDS011;12713;51.624;4.924;2022-07-23T00:30:50;9.65;;;5.97;;
24547;SDS011;12713;51.624;4.924;2022-07-23T00:33:17;7.70;;;6.47;;
24547;SDS011;12713;51.624;4.924;2022-07-23T00:35:43;9.25;;;6.85;;
24547;SDS011;12713;51.624;4.924;2022-07-23T00:38:12;8.30;;;6.07;;
24547;SDS011;12713;51.624;4.924;2022-07-23T00:40:38;9.90;;;7.40;;
24547;SDS011;12713;51.624;4.924;2022-07-23T00:43:04;7.15;;;6.18;;
24547;SDS011;12713;51.624;4.924;2022-07-23T00:45:31;7.97;;;6.35;;
24547;SDS011;12713;51.624;4.924;2022-07-23T00:47:57;10.75;;;7.13;;
24547;SDS011;12713;51.624;4.924;2022-07-23T00:50:23;9.35;;;6.40;;
24547;SDS011;12713;51.624;4.924;2022-07-23T00:52:50;9.80;;;6.10;;
24547;SDS011;12713;51.624;4.924;2022-07-23T00:55:16;8.75;;;5.85;;
24547;SDS011;12713;51.624;4.924;2022-07-23T00:57:42;8.88;;;6.07;;
24547;SDS011;12713;51.624;4.924;2022-07-23T01:00:10;12.65;;;7.57;;
24547;SDS011;12713;51.624;4.924;2022-07-23T01:02:36;10.85;;;8.25;;
24547;SDS011;12713;51.624;4.924;2022-07-23T01:05:02;10.90;;;7.97;;
24547;SDS011;12713;51.624;4.924;2022-07-23T01:07:28;11.95;;;10.00;;
24547;SDS011;12713;51.624;4.924;2022-07-23T01:09:54;11.77;;;9.57;;
24547;SDS011;12713;51.624;4.924;2022-07-23T01:12:21;12.25;;;10.23;;
24547;SDS011;12713;51.624;4.924;2022-07-23T01:14:57;11.35;;;9.65;;
24547;SDS011;12713;51.624;4.924;2022-07-23T01:17:23;11.75;;;9.65;;
24547;SDS011;12713;51.624;4.924;2022-07-23T01:19:49;17.92;;;11.25;;
24547;SDS011;12713;51.624;4.924;2022-07-23T01:22:17;11.27;;;9.05;;
24547;SDS011;12713;51.624;4.924;2022-07-23T01:24:43;11.70;;;10.02;;
24547;SDS011;12713;51.624;4.924;2022-07-23T01:27:09;12.88;;;10.35;;
24547;SDS011;12713;51.624;4.924;2022-07-23T01:29:37;15.07;;;10.13;;
24547;SDS011;12713;51.624;4.924;2022-07-23T01:32:04;15.07;;;9.85;;
24547;SDS011;12713;51.624;4.924;2022-07-23T01:34:30;14.32;;;9.13;;
24547;SDS011;12713;51.624;4.924;2022-07-23T01:36:56;12.57;;;10.40;;
24547;SDS011;12713;51.624;4.924;2022-07-23T01:39:22;11.27;;;9.45;;
24547;SDS011;12713;51.624;4.924;2022-07-23T01:41:48;10.77;;;8.40;;
24547;SDS011;12713;51.624;4.924;2022-07-23T01:44:14;13.85;;;10.40;;
24547;SDS011;12713;51.624;4.924;2022-07-23T01:46:41;11.63;;;7.77;;
24547;SDS011;12713;51.624;4.924;2022-07-23T01:49:07;12.57;;;9.18;;
24547;SDS011;12713;51.624;4.924;2022-07-23T01:51:36;13.57;;;8.60;;
24547;SDS011;12713;51.624;4.924;2022-07-23T01:54:22;16.08;;;10.18;;
24547;SDS011;12713;51.624;4.924;2022-07-23T01:56:48;15.00;;;9.60;;
24547;SDS011;12713;51.624;4.924;2022-07-23T01:59:14;14.93;;;8.73;;
24547;SDS011;12713;51.624;4.924;2022-07-23T02:01:40;12.07;;;9.18;;
24547;SDS011;12713;51.624;4.924;2022-07-23T02:04:06;11.10;;;8.70;;
24547;SDS011;12713;51.624;4.924;2022-07-23T02:06:32;11.88;;;7.68;;
24547;SDS011;12713;51.624;4.924;2022-07-23T02:08:58;8.68;;;7.78;;
24547;SDS011;12713;51.624;4.924;2022-07-23T02:11:24;9.13;;;8.00;;
24547;SDS011;12713;51.624;4.924;2022-07-23T02:13:50;8.98;;;7.40;;
24547;SDS011;12713;51.624;4.924;2022-07-23T02:16:16;11.00;;;8.77;;
24547;SDS011;12713;51.624;4.924;2022-07-23T02:18:42;10.88;;;7.35;;
24547;SDS011;12713;51.624;4.924;2022-07-23T02:21:08;11.63;;;8.15;;
24547;SDS011;12713;51.624;4.924;2022-07-23T02:23:34;11.50;;;7.60;;
24547;SDS011;12713;51.624;4.924;2022-07-23T02:26:00;9.00;;;6.13;;
24547;SDS011;12713;51.624;4.924;2022-07-23T02:28:26;10.48;;;7.35;;
24547;SDS011;12713;51.624;4.924;2022-07-23T02:30:52;9.32;;;7.30;;
24547;SDS011;12713;51.624;4.924;2022-07-23T02:33:18;11.07;;;6.80;;
24547;SDS011;12713;51.624;4.924;2022-07-23T02:35:44;11.20;;;8.00;;
24547;SDS011;12713;51.624;4.924;2022-07-23T02:38:11;11.60;;;8.05;;
24547;SDS011;12713;51.624;4.924;2022-07-23T02:40:37;8.88;;;7.97;;
24547;SDS011;12713;51.624;4.924;2022-07-23T02:43:03;9.52;;;7.78;;
24547;SDS011;12713;51.624;4.924;2022-07-23T02:45:29;11.48;;;8.02;;
24547;SDS011;12713;51.624;4.924;2022-07-23T02:47:55;10.20;;;7.82;;
24547;SDS011;12713;51.624;4.924;2022-07-23T02:50:21;11.90;;;9.15;;
24547;SDS011;12713;51.624;4.924;2022-07-23T02:52:47;12.32;;;7.70;;
24547;SDS011;12713;51.624;4.924;2022-07-23T02:55:13;11.07;;;8.02;;
24547;SDS011;12713;51.624;4.924;2022-07-23T02:57:39;10.57;;;7.45;;
24547;SDS011;12713;51.624;4.924;2022-07-23T03:00:06;10.68;;;8.10;;
24547;SDS011;12713;51.624;4.924;2022-07-23T03:02:32;10.05;;;6.72;;
24547;SDS011;12713;51.624;4.924;2022-07-23T03:04:58;10.27;;;7.47;;
24547;SDS011;12713;51.624;4.924;2022-07-23T03:07:24;9.98;;;7.93;;
24547;SDS011;12713;51.624;4.924;2022-07-23T03:09:50;9.55;;;6.97;;
24547;SDS011;12713;51.624;4.924;2022-07-23T03:12:16;9.75;;;7.20;;
24547;SDS011;12713;51.624;4.924;2022-07-23T03:14:42;9.23;;;7.25;;
24547;SDS011;12713;51.624;4.924;2022-07-23T03:17:09;13.50;;;7.47;;
24547;SDS011;12713;51.624;4.924;2022-07-23T03:19:35;9.93;;;7.45;;
24547;SDS011;12713;51.624;4.924;2022-07-23T03:22:02;11.73;;;8.93;;
24547;SDS011;12713;51.624;4.924;2022-07-23T03:24:28;12.65;;;9.25;;
24547;SDS011;12713;51.624;4.924;2022-07-23T03:27:12;10.45;;;7.50;;
24547;SDS011;12713;51.624;4.924;2022-07-23T03:29:41;12.38;;;8.82;;
24547;SDS011;12713;51.624;4.924;2022-07-23T03:32:07;9.30;;;7.07;;
24547;SDS011;12713;51.624;4.924;2022-07-23T03:34:33;12.07;;;8.90;;
24547;SDS011;12713;51.624;4.924;2022-07-23T03:36:59;13.10;;;8.02;;
24547;SDS011;12713;51.624;4.924;2022-07-23T03:39:25;13.27;;;8.93;;
24547;SDS011;12713;51.624;4.924;2022-07-23T03:41:51;10.75;;;8.00;;
24547;SDS011;12713;51.624;4.924;2022-07-23T03:44:17;9.05;;;7.07;;
24547;SDS011;12713;51.624;4.924;2022-07-23T03:46:43;11.70;;;7.55;;
24547;SDS011;12713;51.624;4.924;2022-07-23T03:49:09;8.82;;;6.30;;
24547;SDS011;12713;51.624;4.924;2022-07-23T03:51:35;9.48;;;7.65;;
24547;SDS011;12713;51.624;4.924;2022-07-23T03:54:01;11.65;;;8.23;;
24547;SDS011;12713;51.624;4.924;2022-07-23T03:56:27;10.02;;;8.15;;
24547;SDS011;12713;51.624;4.924;2022-07-23T03:58:53;8.65;;;7.32;;
24547;SDS011;12713;51.624;4.924;2022-07-23T04:01:19;13.32;;;8.13;;
24547;SDS011;12713;51.624;4.924;2022-07-23T04:03:46;11.45;;;8.25;;
24547;SDS011;12713;51.624;4.924;2022-07-23T04:06:14;14.15;;;8.80;;
24547;SDS011;12713;51.624;4.924;2022-07-23T04:08:40;11.25;;;7.72;;
24547;SDS011;12713;51.624;4.924;2022-07-23T04:11:06;11.70;;;8.82;;
24547;SDS011;12713;51.624;4.924;2022-07-23T04:13:32;12.45;;;8.85;;
24547;SDS011;12713;51.624;4.924;2022-07-23T04:15:58;10.70;;;8.90;;
24547;SDS011;12713;51.624;4.924;2022-07-23T04:18:24;10.73;;;7.13;;
24547;SDS011;12713;51.624;4.924;2022-07-23T04:20:50;9.95;;;8.02;;
24547;SDS011;12713;51.624;4.924;2022-07-23T04:23:17;12.52;;;7.85;;
24547;SDS011;12713;51.624;4.924;2022-07-23T04:25:43;9.27;;;7.90;;
24547;SDS011;12713;51.624;4.924;2022-07-23T04:28:09;9.88;;;8.27;;
24547;SDS011;12713;51.624;4.924;2022-07-23T04:30:35;9.00;;;7.28;;
24547;SDS011;12713;51.624;4.924;2022-07-23T04:33:01;10.20;;;8.23;;
24547;SDS011;12713;51.624;4.924;2022-07-23T04:35:30;10.85;;;7.22;;
24547;SDS011;12713;51.624;4.924;2022-07-23T04:37:56;11.20;;;8.77;;
24547;SDS011;12713;51.624;4.924;2022-07-23T04:40:22;9.23;;;8.00;;
24547;SDS011;12713;51.624;4.924;2022-07-23T04:42:48;12.07;;;8.63;;
24547;SDS011;12713;51.624;4.924;2022-07-23T04:45:14;10.10;;;7.45;;
24547;SDS011;12713;51.624;4.924;2022-07-23T04:47:53;10.70;;;8.55;;
24547;SDS011;12713;51.624;4.924;2022-07-23T04:53:07;10.90;;;8.45;;
24547;SDS011;12713;51.624;4.924;2022-07-23T04:56:05;13.68;;;9.63;;
24547;SDS011;12713;51.624;4.924;2022-07-23T04:58:47;12.40;;;9.23;;
24547;SDS011;12713;51.624;4.924;2022-07-23T05:01:13;11.88;;;9.07;;
24547;SDS011;12713;51.624;4.924;2022-07-23T05:03:39;13.77;;;8.85;;
24547;SDS011;12713;51.624;4.924;2022-07-23T05:06:05;10.25;;;7.82;;
24547;SDS011;12713;51.624;4.924;2022-07-23T05:08:31;10.90;;;8.45;;
24547;SDS011;12713;51.624;4.924;2022-07-23T05:10:57;12.63;;;8.82;;
24547;SDS011;12713;51.624;4.924;2022-07-23T05:13:24;11.30;;;8.05;;
24547;SDS011;12713;51.624;4.924;2022-07-23T05:15:50;9.88;;;7.20;;
24547;SDS011;12713;51.624;4.924;2022-07-23T05:18:16;10.73;;;8.23;;
24547;SDS011;12713;51.624;4.924;2022-07-23T05:20:42;11.57;;;8.00;;
24547;SDS011;12713;51.624;4.924;2022-07-23T05:23:08;11.20;;;8.13;;
24547;SDS011;12713;51.624;4.924;2022-07-23T05:25:35;10.63;;;8.15;;
24547;SDS011;12713;51.624;4.924;2022-07-23T05:28:01;11.00;;;7.32;;
24547;SDS011;12713;51.624;4.924;2022-07-23T05:30:27;12.02;;;7.80;;
24547;SDS011;12713;51.624;4.924;2022-07-23T05:32:53;13.85;;;7.03;;
24547;SDS011;12713;51.624;4.924;2022-07-23T05:35:19;8.93;;;7.63;;
24547;SDS011;12713;51.624;4.924;2022-07-23T05:37:45;9.57;;;7.30;;
24547;SDS011;12713;51.624;4.924;2022-07-23T05:40:11;8.90;;;7.57;;
24547;SDS011;12713;51.624;4.924;2022-07-23T05:42:38;10.48;;;7.38;;
24547;SDS011;12713;51.624;4.924;2022-07-23T05:45:04;8.07;;;6.28;;
24547;SDS011;12713;51.624;4.924;2022-07-23T05:50:06;17.10;;;7.07;;
24547;SDS011;12713;51.624;4.924;2022-07-23T05:52:32;10.80;;;7.50;;
24547;SDS011;12713;51.624;4.924;2022-07-23T05:54:58;10.95;;;6.60;;
24547;SDS011;12713;51.624;4.924;2022-07-23T05:57:24;11.05;;;8.52;;
24547;SDS011;12713;51.624;4.924;2022-07-23T05:59:50;11.27;;;6.93;;
24547;SDS011;12713;51.624;4.924;2022-07-23T06:02:16;10.77;;;6.82;;
24547;SDS011;12713;51.624;4.924;2022-07-23T06:04:42;14.10;;;9.35;;
24547;SDS011;12713;51.624;4.924;2022-07-23T06:07:08;13.90;;;9.70;;
24547;SDS011;12713;51.624;4.924;2022-07-23T06:09:34;12.60;;;8.50;;
24547;SDS011;12713;51.624;4.924;2022-07-23T06:12:00;9.40;;;7.20;;
24547;SDS011;12713;51.624;4.924;2022-07-23T06:14:26;10.95;;;7.47;;
24547;SDS011;12713;51.624;4.924;2022-07-23T06:16:52;11.35;;;7.80;;
24547;SDS011;12713;51.624;4.924;2022-07-23T06:19:18;9.32;;;6.35;;
24547;SDS011;12713;51.624;4.924;2022-07-23T06:21:44;10.73;;;8.20;;
24547;SDS011;12713;51.624;4.924;2022-07-23T06:24:10;9.27;;;6.50;;
24547;SDS011;12713;51.624;4.924;2022-07-23T06:26:36;17.35;;;8.00;;
24547;SDS011;12713;51.624;4.924;2022-07-23T06:29:05;7.45;;;6.18;;
24547;SDS011;12713;51.624;4.924;2022-07-23T06:31:31;8.70;;;6.07;;
24547;SDS011;12713;51.624;4.924;2022-07-23T06:33:57;6.20;;;4.85;;
24547;SDS011;12713;51.624;4.924;2022-07-23T06:36:23;10.25;;;6.03;;
24547;SDS011;12713;51.624;4.924;2022-07-23T06:38:49;9.82;;;6.13;;
24547;SDS011;12713;51.624;4.924;2022-07-23T06:41:18;8.30;;;5.10;;
24547;SDS011;12713;51.624;4.924;2022-07-23T06:43:50;6.57;;;4.67;;
24547;SDS011;12713;51.624;4.924;2022-07-23T06:46:16;6.30;;;4.60;;
24547;SDS011;12713;51.624;4.924;2022-07-23T06:48:42;9.25;;;6.88;;
24547;SDS011;12713;51.624;4.924;2022-07-23T06:51:08;8.18;;;6.20;;
24547;SDS011;12713;51.624;4.924;2022-07-23T06:53:34;5.43;;;3.47;;
24547;SDS011;12713;51.624;4.924;2022-07-23T06:56:00;7.10;;;5.55;;
24547;SDS011;12713;51.624;4.924;2022-07-23T06:58:26;7.90;;;6.22;;
24547;SDS011;12713;51.624;4.924;2022-07-23T07:00:52;8.48;;;6.80;;
24547;SDS011;12713;51.624;4.924;2022-07-23T07:03:18;9.98;;;5.53;;
24547;SDS011;12713;51.624;4.924;2022-07-23T07:05:44;12.75;;;6.50;;
24547;SDS011;12713;51.624;4.924;2022-07-23T07:08:11;13.77;;;6.53;;
24547;SDS011;12713;51.624;4.924;2022-07-23T07:10:37;11.35;;;6.70;;
24547;SDS011;12713;51.624;4.924;2022-07-23T07:13:03;9.45;;;6.30;;
24547;SDS011;12713;51.624;4.924;2022-07-23T07:15:29;10.52;;;5.90;;
24547;SDS011;12713;51.624;4.924;2022-07-23T07:17:55;6.53;;;4.65;;
24547;SDS011;12713;51.624;4.924;2022-07-23T07:20:21;9.98;;;6.75;;
24547;SDS011;12713;51.624;4.924;2022-07-23T07:22:48;8.60;;;6.35;;
24547;SDS011;12713;51.624;4.924;2022-07-23T07:25:14;7.47;;;5.57;;
24547;SDS011;12713;51.624;4.924;2022-07-23T07:27:40;10.10;;;4.88;;
24547;SDS011;12713;51.624;4.924;2022-07-23T07:30:06;7.70;;;4.95;;
24547;SDS011;12713;51.624;4.924;2022-07-23T07:32:32;8.45;;;5.13;;
24547;SDS011;12713;51.624;4.924;2022-07-23T07:35:01;11.10;;;5.45;;
24547;SDS011;12713;51.624;4.924;2022-07-23T07:37:30;9.00;;;5.25;;
24547;SDS011;12713;51.624;4.924;2022-07-23T07:39:59;7.05;;;5.45;;
24547;SDS011;12713;51.624;4.924;2022-07-23T07:42:27;8.27;;;5.07;;
24547;SDS011;12713;51.624;4.924;2022-07-23T07:44:53;8.43;;;4.63;;
24547;SDS011;12713;51.624;4.924;2022-07-23T07:47:19;9.82;;;5.78;;
24547;SDS011;12713;51.624;4.924;2022-07-23T07:49:45;12.15;;;6.65;;
24547;SDS011;12713;51.624;4.924;2022-07-23T07:52:11;10.05;;;5.97;;
24547;SDS011;12713;51.624;4.924;2022-07-23T07:54:37;10.40;;;6.68;;
24547;SDS011;12713;51.624;4.924;2022-07-23T07:57:03;9.30;;;5.88;;
24547;SDS011;12713;51.624;4.924;2022-07-23T07:59:29;9.75;;;5.53;;
24547;SDS011;12713;51.624;4.924;2022-07-23T08:01:55;7.97;;;5.50;;
24547;SDS011;12713;51.624;4.924;2022-07-23T08:04:21;6.75;;;4.78;;
24547;SDS011;12713;51.624;4.924;2022-07-23T08:06:48;6.88;;;5.10;;
24547;SDS011;12713;51.624;4.924;2022-07-23T08:09:14;9.13;;;5.18;;
24547;SDS011;12713;51.624;4.924;2022-07-23T08:11:40;8.90;;;5.82;;
24547;SDS011;12713;51.624;4.924;2022-07-23T08:14:06;9.73;;;6.45;;
24547;SDS011;12713;51.624;4.924;2022-07-23T08:16:32;12.88;;;6.10;;
24547;SDS011;12713;51.624;4.924;2022-07-23T08:18:58;9.25;;;5.40;;
24547;SDS011;12713;51.624;4.924;2022-07-23T08:21:24;12.55;;;5.80;;
24547;SDS011;12713;51.624;4.924;2022-07-23T08:23:50;10.77;;;5.50;;
24547;SDS011;12713;51.624;4.924;2022-07-23T08:26:16;9.27;;;5.68;;
24547;SDS011;12713;51.624;4.924;2022-07-23T08:28:42;7.35;;;5.18;;
24547;SDS011;12713;51.624;4.924;2022-07-23T08:31:08;7.80;;;4.47;;
24547;SDS011;12713;51.624;4.924;2022-07-23T08:33:39;9.75;;;4.80;;
24547;SDS011;12713;51.624;4.924;2022-07-23T08:36:05;8.40;;;4.75;;
24547;SDS011;12713;51.624;4.924;2022-07-23T08:38:32;6.70;;;4.28;;
24547;SDS011;12713;51.624;4.924;2022-07-23T08:40:58;7.10;;;4.50;;
24547;SDS011;12713;51.624;4.924;2022-07-23T08:43:31;7.20;;;4.65;;
24547;SDS011;12713;51.624;4.924;2022-07-23T08:45:59;7.82;;;4.45;;
24547;SDS011;12713;51.624;4.924;2022-07-23T08:48:26;8.68;;;4.38;;
24547;SDS011;12713;51.624;4.924;2022-07-23T08:50:56;13.27;;;4.45;;
24547;SDS011;12713;51.624;4.924;2022-07-23T08:53:23;5.80;;;4.57;;
24547;SDS011;12713;51.624;4.924;2022-07-23T08:55:54;7.50;;;4.70;;
24547;SDS011;12713;51.624;4.924;2022-07-23T08:58:20;6.72;;;4.40;;
24547;SDS011;12713;51.624;4.924;2022-07-23T09:00:47;14.00;;;4.88;;
24547;SDS011;12713;51.624;4.924;2022-07-23T09:03:17;9.80;;;5.40;;
24547;SDS011;12713;51.624;4.924;2022-07-23T09:05:43;8.68;;;4.00;;
24547;SDS011;12713;51.624;4.924;2022-07-23T09:08:11;6.93;;;4.30;;
24547;SDS011;12713;51.624;4.924;2022-07-23T09:10:44;7.05;;;5.45;;
24547;SDS011;12713;51.624;4.924;2022-07-23T09:15:53;5.78;;;4.72;;
24547;SDS011;12713;51.624;4.924;2022-07-23T09:18:19;8.63;;;4.00;;
24547;SDS011;12713;51.624;4.924;2022-07-23T09:21:04;7.55;;;4.30;;
24547;SDS011;12713;51.624;4.924;2022-07-23T09:23:44;8.32;;;4.90;;
24547;SDS011;12713;51.624;4.924;2022-07-23T09:26:17;10.73;;;4.35;;
24547;SDS011;12713;51.624;4.924;2022-07-23T09:28:55;8.45;;;5.22;;
24547;SDS011;12713;51.624;4.924;2022-07-23T09:31:22;7.53;;;4.97;;
24547;SDS011;12713;51.624;4.924;2022-07-23T09:33:49;8.98;;;5.30;;
24547;SDS011;12713;51.624;4.924;2022-07-23T09:36:15;6.95;;;4.10;;
24547;SDS011;12713;51.624;4.924;2022-07-23T09:38:50;6.88;;;4.88;;
24547;SDS011;12713;51.624;4.924;2022-07-23T09:41:16;5.20;;;4.53;;
24547;SDS011;12713;51.624;4.924;2022-07-23T09:43:43;7.32;;;4.88;;
24547;SDS011;12713;51.624;4.924;2022-07-23T09:48:55;6.72;;;4.22;;
24547;SDS011;12713;51.624;4.924;2022-07-23T09:51:27;6.70;;;4.18;;
24547;SDS011;12713;51.624;4.924;2022-07-23T09:54:02;5.55;;;3.90;;
24547;SDS011;12713;51.624;4.924;2022-07-23T09:56:28;6.78;;;3.05;;
24547;SDS011;12713;51.624;4.924;2022-07-23T09:58:54;5.68;;;3.83;;
24547;SDS011;12713;51.624;4.924;2022-07-23T10:01:31;5.22;;;3.42;;
24547;SDS011;12713;51.624;4.924;2022-07-23T10:03:58;8.55;;;3.33;;
24547;SDS011;12713;51.624;4.924;2022-07-23T10:06:24;4.15;;;3.38;;
24547;SDS011;12713;51.624;4.924;2022-07-23T10:08:50;9.15;;;4.43;;
24547;SDS011;12713;51.624;4.924;2022-07-23T10:11:19;6.35;;;3.45;;
24547;SDS011;12713;51.624;4.924;2022-07-23T10:14:03;7.07;;;3.45;;
24547;SDS011;12713;51.624;4.924;2022-07-23T10:16:31;4.65;;;3.72;;
24547;SDS011;12713;51.624;4.924;2022-07-23T10:18:57;3.20;;;2.90;;
24547;SDS011;12713;51.624;4.924;2022-07-23T10:21:25;4.10;;;3.67;;
24547;SDS011;12713;51.624;4.924;2022-07-23T10:24:10;6.20;;;3.42;;
24547;SDS011;12713;51.624;4.924;2022-07-23T10:26:40;4.65;;;3.25;;
24547;SDS011;12713;51.624;4.924;2022-07-23T10:34:22;4.32;;;2.80;;
24547;SDS011;12713;51.624;4.924;2022-07-23T10:36:50;3.47;;;2.47;;
24547;SDS011;12713;51.624;4.924;2022-07-23T10:39:26;8.18;;;2.80;;
24547;SDS011;12713;51.624;4.924;2022-07-23T10:42:01;4.32;;;2.83;;
24547;SDS011;12713;51.624;4.924;2022-07-23T10:44:37;4.65;;;2.70;;
24547;SDS011;12713;51.624;4.924;2022-07-23T10:47:04;5.30;;;2.80;;
24547;SDS011;12713;51.624;4.924;2022-07-23T10:49:45;3.03;;;1.90;;
24547;SDS011;12713;51.624;4.924;2022-07-23T10:54:41;2.72;;;2.08;;
24547;SDS011;12713;51.624;4.924;2022-07-23T10:57:08;3.63;;;1.60;;
24547;SDS011;12713;51.624;4.924;2022-07-23T11:02:22;3.17;;;1.67;;
24547;SDS011;12713;51.624;4.924;2022-07-23T11:04:52;2.88;;;1.52;;
24547;SDS011;12713;51.624;4.924;2022-07-23T11:07:18;2.22;;;1.50;;
24547;SDS011;12713;51.624;4.924;2022-07-23T11:09:44;1.77;;;1.48;;
24547;SDS011;12713;51.624;4.924;2022-07-23T11:17:23;3.20;;;2.58;;
24547;SDS011;12713;51.624;4.924;2022-07-23T11:22:51;2.65;;;1.88;;
24547;SDS011;12713;51.624;4.924;2022-07-23T11:27:48;2.58;;;2.08;;
24547;SDS011;12713;51.624;4.924;2022-07-23T11:33:16;2.83;;;1.80;;
24547;SDS011;12713;51.624;4.924;2022-07-23T11:35:44;2.97;;;2.25;;
24547;SDS011;12713;51.624;4.924;2022-07-23T11:40:36;3.65;;;2.03;;
24547;SDS011;12713;51.624;4.924;2022-07-23T11:43:05;3.35;;;2.10;;
24547;SDS011;12713;51.624;4.924;2022-07-23T11:48:01;3.00;;;2.20;;
24547;SDS011;12713;51.624;4.924;2022-07-23T11:50:27;4.93;;;2.00;;
24547;SDS011;12713;51.624;4.924;2022-07-23T11:52:54;3.45;;;1.90;;
24547;SDS011;12713;51.624;4.924;2022-07-23T11:55:20;3.88;;;2.03;;
24547;SDS011;12713;51.624;4.924;2022-07-23T11:57:46;2.28;;;1.85;;
24547;SDS011;12713;51.624;4.924;2022-07-23T12:02:42;3.70;;;1.80;;
24547;SDS011;12713;51.624;4.924;2022-07-23T12:05:15;3.03;;;2.08;;
24547;SDS011;12713;51.624;4.924;2022-07-23T12:07:45;2.17;;;1.98;;
24547;SDS011;12713;51.624;4.924;2022-07-23T12:12:41;4.45;;;2.47;;
24547;SDS011;12713;51.624;4.924;2022-07-23T12:15:08;3.08;;;2.30;;
24547;SDS011;12713;51.624;4.924;2022-07-23T12:17:38;2.72;;;2.00;;
24547;SDS011;12713;51.624;4.924;2022-07-23T12:20:30;4.88;;;2.65;;
24547;SDS011;12713;51.624;4.924;2022-07-23T12:23:00;4.65;;;2.92;;
24547;SDS011;12713;51.624;4.924;2022-07-23T12:25:28;2.85;;;2.42;;
24547;SDS011;12713;51.624;4.924;2022-07-23T12:27:58;3.90;;;2.45;;
24547;SDS011;12713;51.624;4.924;2022-07-23T12:30:27;5.28;;;3.00;;
24547;SDS011;12713;51.624;4.924;2022-07-23T12:32:56;2.60;;;2.28;;
24547;SDS011;12713;51.624;4.924;2022-07-23T12:35:22;4.63;;;3.08;;
24547;SDS011;12713;51.624;4.924;2022-07-23T12:37:50;6.28;;;2.67;;
24547;SDS011;12713;51.624;4.924;2022-07-23T12:42:50;3.13;;;2.70;;
24547;SDS011;12713;51.624;4.924;2022-07-23T12:45:17;4.03;;;3.20;;
24547;SDS011;12713;51.624;4.924;2022-07-23T12:50:43;5.30;;;2.83;;
24547;SDS011;12713;51.624;4.924;2022-07-23T12:55:35;3.83;;;2.33;;
24547;SDS011;12713;51.624;4.924;2022-07-23T13:00:30;2.97;;;2.17;;
24547;SDS011;12713;51.624;4.924;2022-07-23T13:02:57;3.38;;;2.03;;
24547;SDS011;12713;51.624;4.924;2022-07-23T13:05:23;4.60;;;2.60;;
24547;SDS011;12713;51.624;4.924;2022-07-23T13:07:49;4.43;;;2.33;;
24547;SDS011;12713;51.624;4.924;2022-07-23T13:10:15;4.25;;;2.83;;
24547;SDS011;12713;51.624;4.924;2022-07-23T13:12:41;5.65;;;2.38;;
24547;SDS011;12713;51.624;4.924;2022-07-23T13:15:07;2.58;;;2.30;;
24547;SDS011;12713;51.624;4.924;2022-07-23T13:17:33;2.25;;;1.95;;
24547;SDS011;12713;51.624;4.924;2022-07-23T13:20:01;4.05;;;2.60;;
24547;SDS011;12713;51.624;4.924;2022-07-23T13:22:28;2.60;;;2.22;;
24547;SDS011;12713;51.624;4.924;2022-07-23T13:24:54;3.83;;;2.75;;
24547;SDS011;12713;51.624;4.924;2022-07-23T13:27:20;3.60;;;2.00;;
24547;SDS011;12713;51.624;4.924;2022-07-23T13:29:46;3.60;;;2.70;;
24547;SDS011;12713;51.624;4.924;2022-07-23T13:32:12;2.83;;;2.17;;
24547;SDS011;12713;51.624;4.924;2022-07-23T13:34:38;4.60;;;3.08;;
24547;SDS011;12713;51.624;4.924;2022-07-23T13:37:04;3.72;;;2.45;;
24547;SDS011;12713;51.624;4.924;2022-07-23T13:39:30;4.13;;;2.63;;
24547;SDS011;12713;51.624;4.924;2022-07-23T13:41:56;3.75;;;2.45;;
24547;SDS011;12713;51.624;4.924;2022-07-23T13:44:22;3.33;;;2.53;;
24547;SDS011;12713;51.624;4.924;2022-07-23T13:46:49;5.20;;;1.90;;
24547;SDS011;12713;51.624;4.924;2022-07-23T13:49:15;3.28;;;2.35;;
24547;SDS011;12713;51.624;4.924;2022-07-23T13:51:41;4.28;;;2.47;;
24547;SDS011;12713;51.624;4.924;2022-07-23T13:54:07;6.55;;;2.20;;
24547;SDS011;12713;51.624;4.924;2022-07-23T13:56:33;6.47;;;2.67;;
24547;SDS011;12713;51.624;4.924;2022-07-23T13:58:59;4.45;;;2.20;;
24547;SDS011;12713;51.624;4.924;2022-07-23T14:01:25;5.90;;;2.50;;
24547;SDS011;12713;51.624;4.924;2022-07-23T14:03:51;4.72;;;2.53;;
24547;SDS011;12713;51.624;4.924;2022-07-23T14:06:17;4.03;;;2.70;;
24547;SDS011;12713;51.624;4.924;2022-07-23T14:08:44;4.78;;;2.35;;
24547;SDS011;12713;51.624;4.924;2022-07-23T14:11:10;4.95;;;2.65;;
24547;SDS011;12713;51.624;4.924;2022-07-23T14:13:36;2.67;;;2.17;;
24547;SDS011;12713;51.624;4.924;2022-07-23T14:16:02;3.08;;;2.55;;
24547;SDS011;12713;51.624;4.924;2022-07-23T14:18:28;2.97;;;2.63;;
24547;SDS011;12713;51.624;4.924;2022-07-23T14:20:54;4.85;;;2.30;;
24547;SDS011;12713;51.624;4.924;2022-07-23T14:23:20;2.53;;;1.90;;
24547;SDS011;12713;51.624;4.924;2022-07-23T14:25:46;3.47;;;2.25;;
24547;SDS011;12713;51.624;4.924;2022-07-23T14:28:12;4.32;;;2.40;;
24547;SDS011;12713;51.624;4.924;2022-07-23T14:30:39;3.28;;;1.67;;
24547;SDS011;12713;51.624;4.924;2022-07-23T14:33:07;4.90;;;2.38;;
24547;SDS011;12713;51.624;4.924;2022-07-23T14:35:33;2.25;;;2.03;;
24547;SDS011;12713;51.624;4.924;2022-07-23T14:37:59;3.95;;;2.03;;
24547;SDS011;12713;51.624;4.924;2022-07-23T14:40:25;4.05;;;2.03;;
24547;SDS011;12713;51.624;4.924;2022-07-23T14:42:54;2.83;;;2.10;;
24547;SDS011;12713;51.624;4.924;2022-07-23T14:45:20;3.25;;;2.13;;
24547;SDS011;12713;51.624;4.924;2022-07-23T14:47:48;2.53;;;2.03;;
24547;SDS011;12713;51.624;4.924;2022-07-23T14:50:14;3.72;;;2.30;;
24547;SDS011;12713;51.624;4.924;2022-07-23T14:52:41;3.92;;;2.40;;
24547;SDS011;12713;51.624;4.924;2022-07-23T14:55:07;5.25;;;2.85;;
24547;SDS011;12713;51.624;4.924;2022-07-23T14:57:35;3.33;;;2.30;;
24547;SDS011;12713;51.624;4.924;2022-07-23T15:00:03;4.40;;;2.30;;
24547;SDS011;12713;51.624;4.924;2022-07-23T15:02:29;4.07;;;2.17;;
24547;SDS011;12713;51.624;4.924;2022-07-23T15:04:55;5.88;;;2.55;;
24547;SDS011;12713;51.624;4.924;2022-07-23T15:07:25;4.45;;;2.47;;
24547;SDS011;12713;51.624;4.924;2022-07-23T15:09:54;4.40;;;2.70;;
24547;SDS011;12713;51.624;4.924;2022-07-23T15:12:20;3.33;;;2.20;;
24547;SDS011;12713;51.624;4.924;2022-07-23T15:14:46;2.75;;;2.10;;
24547;SDS011;12713;51.624;4.924;2022-07-23T15:17:12;5.13;;;2.20;;
24547;SDS011;12713;51.624;4.924;2022-07-23T15:19:38;5.35;;;2.28;;
24547;SDS011;12713;51.624;4.924;2022-07-23T15:22:04;5.35;;;2.30;;
24547;SDS011;12713;51.624;4.924;2022-07-23T15:24:30;4.53;;;2.20;;
24547;SDS011;12713;51.624;4.924;2022-07-23T15:26:56;3.83;;;2.35;;
24547;SDS011;12713;51.624;4.924;2022-07-23T15:29:22;4.15;;;2.25;;
24547;SDS011;12713;51.624;4.924;2022-07-23T15:31:51;3.88;;;2.47;;
24547;SDS011;12713;51.624;4.924;2022-07-23T15:34:17;4.05;;;2.55;;
24547;SDS011;12713;51.624;4.924;2022-07-23T15:36:43;3.63;;;2.70;;
24547;SDS011;12713;51.624;4.924;2022-07-23T15:39:09;3.80;;;1.90;;